createdAt,value
2023-12-12T00:00:39.633Z,6.89
2023-12-12T00:03:06.026Z,6.87
2023-12-12T00:05:32.478Z,6.83
2023-12-12T00:07:59.660Z,6.78
2023-12-12T00:10:41.453Z,6.77
2023-12-12T00:13:08.142Z,6.80
2023-12-12T00:15:34.498Z,6.76
2023-12-12T00:18:00.977Z,6.72
2023-12-12T00:20:27.327Z,6.76
2023-12-12T00:22:53.681Z,6.68
2023-12-12T00:25:20.772Z,6.73
2023-12-12T00:27:55.409Z,6.80
2023-12-12T00:30:21.787Z,6.68
2023-12-12T00:32:48.758Z,6.64
2023-12-12T00:35:15.216Z,6.63
2023-12-12T00:37:42.274Z,6.68
2023-12-12T00:40:10.923Z,6.59
2023-12-12T00:42:37.408Z,6.57
2023-12-12T00:45:04.373Z,6.56
2023-12-12T00:47:31.782Z,6.66
2023-12-12T00:49:58.585Z,6.56
2023-12-12T00:52:25.276Z,6.57
2023-12-12T00:54:52.095Z,6.65
2023-12-12T00:57:18.541Z,6.76
2023-12-12T00:59:44.868Z,6.69
2023-12-12T01:02:11.605Z,6.59
2023-12-12T01:04:38.123Z,6.65
2023-12-12T01:07:04.574Z,6.75
2023-12-12T01:09:30.957Z,6.78
2023-12-12T01:11:57.330Z,6.72
2023-12-12T01:14:27.480Z,6.78
2023-12-12T01:16:53.836Z,6.85
2023-12-12T01:19:20.256Z,6.83
2023-12-12T01:21:47.716Z,6.80
2023-12-12T01:24:14.079Z,6.71
2023-12-12T01:26:50.602Z,6.66
2023-12-12T01:29:18.268Z,6.64
2023-12-12T01:31:44.639Z,6.58
2023-12-12T01:34:11.308Z,6.57
2023-12-12T01:36:37.928Z,6.60
2023-12-12T01:39:05.757Z,6.59
2023-12-12T01:41:32.123Z,6.59
2023-12-12T01:43:58.451Z,6.57
2023-12-12T01:46:25.066Z,6.58
2023-12-12T01:48:51.756Z,6.58
2023-12-12T01:51:18.451Z,6.58
2023-12-12T01:53:47.732Z,6.63
2023-12-12T01:56:14.680Z,6.61
2023-12-12T01:58:43.429Z,6.58
2023-12-12T02:01:10.141Z,6.55
2023-12-12T02:03:36.982Z,6.57
2023-12-12T02:06:04.410Z,6.57
2023-12-12T02:08:30.820Z,6.57
2023-12-12T02:10:57.212Z,6.54
2023-12-12T02:13:23.656Z,6.50
2023-12-12T02:15:50.199Z,6.50
2023-12-12T02:18:16.724Z,6.43
2023-12-12T02:20:43.999Z,6.42
2023-12-12T02:23:10.623Z,6.45
2023-12-12T02:25:38.468Z,6.49
2023-12-12T02:28:05.039Z,6.58
2023-12-12T02:30:34.682Z,6.54
2023-12-12T02:33:01.069Z,6.59
2023-12-12T02:35:28.301Z,6.63
2023-12-12T02:37:54.640Z,6.56
2023-12-12T02:40:21.071Z,6.58
2023-12-12T02:42:47.947Z,6.59
2023-12-12T02:45:14.899Z,6.60
2023-12-12T02:47:48.145Z,6.62
2023-12-12T02:50:16.320Z,6.60
2023-12-12T02:52:42.793Z,6.50
2023-12-12T02:55:10.311Z,6.41
2023-12-12T02:57:36.833Z,6.39
2023-12-12T03:00:04.432Z,6.45
2023-12-12T03:02:31.840Z,6.46
2023-12-12T03:04:58.551Z,6.45
2023-12-12T03:07:25.255Z,6.43
2023-12-12T03:09:52.002Z,6.39
2023-12-12T03:12:18.328Z,6.37
2023-12-12T03:14:44.721Z,6.29
2023-12-12T03:17:11.128Z,6.22
2023-12-12T03:19:37.800Z,6.32
2023-12-12T03:22:04.430Z,6.25
2023-12-12T03:24:30.774Z,6.28
2023-12-12T03:27:02.225Z,6.28
2023-12-12T03:29:31.497Z,6.29
2023-12-12T03:31:59.083Z,6.36
2023-12-12T03:34:25.486Z,6.28
2023-12-12T03:36:57.251Z,6.19
2023-12-12T03:39:24.013Z,6.13
2023-12-12T03:41:50.354Z,6.10
2023-12-12T03:44:16.981Z,6.13
2023-12-12T03:46:43.337Z,6.09
2023-12-12T03:49:09.802Z,6.05
2023-12-12T03:51:36.241Z,6.06
2023-12-12T03:54:02.572Z,6.20
2023-12-12T03:56:29.072Z,6.33
2023-12-12T03:58:55.499Z,6.34
2023-12-12T04:01:21.995Z,6.29
2023-12-12T04:03:48.396Z,6.18
2023-12-12T04:06:14.761Z,6.12
2023-12-12T04:08:42.109Z,6.14
2023-12-12T04:11:08.463Z,5.94
2023-12-12T04:13:34.849Z,6.02
2023-12-12T04:16:06.505Z,5.80
2023-12-12T04:18:32.944Z,5.73
2023-12-12T04:20:59.317Z,5.76
2023-12-12T04:23:26.686Z,5.59
2023-12-12T04:25:53.064Z,5.58
2023-12-12T04:28:19.484Z,5.39
2023-12-12T04:30:45.992Z,5.40
2023-12-12T04:33:12.485Z,5.44
2023-12-12T04:35:39.627Z,5.52
2023-12-12T04:38:05.964Z,5.57
2023-12-12T04:40:32.421Z,5.28
2023-12-12T04:42:59.367Z,5.46
2023-12-12T04:45:27.768Z,5.31
2023-12-12T04:47:54.307Z,5.14
2023-12-12T04:50:28.655Z,5.49
2023-12-12T04:52:54.999Z,5.20
2023-12-12T04:55:21.459Z,5.21
2023-12-12T04:57:47.812Z,5.07
2023-12-12T05:00:15.140Z,5.07
2023-12-12T05:02:42.697Z,4.97
2023-12-12T05:05:09.695Z,5.17
2023-12-12T05:07:36.309Z,5.13
2023-12-12T05:10:15.838Z,4.93
2023-12-12T05:12:45.703Z,5.11
2023-12-12T05:15:21.327Z,5.01
2023-12-12T05:17:47.861Z,5.14
2023-12-12T05:20:17.636Z,5.13
2023-12-12T05:22:44.122Z,5.30
2023-12-12T05:25:10.508Z,5.54
2023-12-12T05:27:36.869Z,5.77
2023-12-12T05:30:08.697Z,5.76
2023-12-12T05:32:35.098Z,5.61
2023-12-12T05:35:02.494Z,5.56
2023-12-12T05:37:29.022Z,5.56
2023-12-12T05:39:59.748Z,5.73
2023-12-12T05:42:27.180Z,5.56
2023-12-12T05:44:53.539Z,5.68
2023-12-12T05:47:19.886Z,5.77
2023-12-12T05:49:47.434Z,5.69
2023-12-12T05:52:13.919Z,5.76
2023-12-12T05:54:40.388Z,5.74
2023-12-12T05:57:06.949Z,5.65
2023-12-12T05:59:33.272Z,5.55
2023-12-12T06:02:01.701Z,5.58
2023-12-12T06:04:28.779Z,5.66
2023-12-12T06:06:55.266Z,5.67
2023-12-12T06:09:21.659Z,5.76
2023-12-12T06:11:49.103Z,5.82
2023-12-12T06:14:18.454Z,5.86
2023-12-12T06:16:47.868Z,5.85
2023-12-12T06:19:14.316Z,5.84
2023-12-12T06:21:40.729Z,5.82
2023-12-12T06:24:08.954Z,5.84
2023-12-12T06:26:35.552Z,5.82
2023-12-12T06:29:02.091Z,5.80
2023-12-12T06:31:28.573Z,5.83
2023-12-12T06:33:55.084Z,5.91
2023-12-12T06:36:21.754Z,5.92
2023-12-12T06:38:48.528Z,5.94
2023-12-12T06:41:14.903Z,5.95
2023-12-12T06:43:44.042Z,6.03
2023-12-12T06:46:10.700Z,6.04
2023-12-12T06:48:38.277Z,6.13
2023-12-12T06:51:05.272Z,6.13
2023-12-12T06:53:31.617Z,6.14
2023-12-12T06:55:57.984Z,6.14
2023-12-12T06:58:25.665Z,6.13
2023-12-12T07:00:52.705Z,6.16
2023-12-12T07:03:20.056Z,6.15
2023-12-12T07:05:46.572Z,6.23
2023-12-12T07:08:12.944Z,6.27
2023-12-12T07:10:39.343Z,6.40
2023-12-12T07:13:05.775Z,6.49
2023-12-12T07:15:32.162Z,6.67
2023-12-12T07:17:58.522Z,6.49
2023-12-12T07:20:24.938Z,6.48
2023-12-12T07:22:51.335Z,6.69
2023-12-12T07:25:17.722Z,6.56
2023-12-12T07:27:44.152Z,6.96
2023-12-12T07:30:11.822Z,6.95
2023-12-12T07:32:38.588Z,6.53
2023-12-12T07:35:05.185Z,6.62
2023-12-12T07:37:32.244Z,6.71
2023-12-12T07:39:58.758Z,6.78
2023-12-12T07:42:26.343Z,6.65
2023-12-12T07:44:53.838Z,6.44
2023-12-12T07:47:25.886Z,6.34
2023-12-12T07:49:59.081Z,6.40
2023-12-12T07:52:25.497Z,6.52
2023-12-12T07:54:51.954Z,6.54
2023-12-12T07:57:18.297Z,6.58
2023-12-12T07:59:44.653Z,6.59
2023-12-12T08:02:11.070Z,6.59
2023-12-12T08:04:37.741Z,6.60
2023-12-12T08:07:04.901Z,6.65
2023-12-12T08:09:31.245Z,6.70
2023-12-12T08:12:01.557Z,6.76
2023-12-12T08:14:27.960Z,6.67
2023-12-12T08:16:54.598Z,6.68
2023-12-12T08:19:21.565Z,6.57
2023-12-12T08:21:48.034Z,6.53
2023-12-12T08:24:14.488Z,6.49
2023-12-12T08:26:42.126Z,6.44
2023-12-12T08:29:09.123Z,6.39
2023-12-12T08:31:35.887Z,6.44
2023-12-12T08:34:02.778Z,6.46
2023-12-12T08:36:29.181Z,6.44
2023-12-12T08:38:55.616Z,6.49
2023-12-12T08:41:21.938Z,6.57
2023-12-12T08:43:48.376Z,6.68
2023-12-12T08:46:14.979Z,6.82
2023-12-12T08:48:41.455Z,6.88
2023-12-12T08:51:09.125Z,6.94
2023-12-12T08:53:35.849Z,6.91
2023-12-12T08:56:02.553Z,6.84
2023-12-12T08:58:28.972Z,6.76
2023-12-12T09:00:56.077Z,6.59
2023-12-12T09:03:22.757Z,6.51
2023-12-12T09:05:51.030Z,6.50
2023-12-12T09:08:17.959Z,6.57
2023-12-12T09:10:44.394Z,6.53
2023-12-12T09:13:10.768Z,6.36
2023-12-12T09:15:37.186Z,6.19
2023-12-12T09:18:15.843Z,6.13
2023-12-12T09:20:46.339Z,6.04
2023-12-12T09:23:12.861Z,5.96
2023-12-12T09:25:39.241Z,5.96
2023-12-12T09:28:05.602Z,5.96
2023-12-12T09:30:32.776Z,6.02
2023-12-12T09:32:59.224Z,6.08
2023-12-12T09:35:25.863Z,6.11
2023-12-12T09:37:52.513Z,6.05
2023-12-12T09:40:19.114Z,5.99
2023-12-12T09:42:48.674Z,5.98
2023-12-12T09:45:16.340Z,5.99
2023-12-12T09:47:43.770Z,6.04
2023-12-12T09:50:11.553Z,6.06
2023-12-12T09:52:38.003Z,6.08
2023-12-12T09:55:07.415Z,6.10
2023-12-12T09:57:34.699Z,6.11
2023-12-12T10:00:01.836Z,6.14
2023-12-12T10:02:32.013Z,6.22
2023-12-12T10:04:58.504Z,6.22
2023-12-12T10:07:26.238Z,6.16
2023-12-12T10:09:52.688Z,6.15
2023-12-12T10:12:19.050Z,6.15
2023-12-12T10:14:46.188Z,6.18
2023-12-12T10:17:12.734Z,6.27
2023-12-12T10:19:39.795Z,6.32
2023-12-12T10:22:06.667Z,6.39
2023-12-12T10:24:33.413Z,6.45
2023-12-12T10:26:59.927Z,6.58
2023-12-12T10:29:26.653Z,6.75
2023-12-12T10:31:53.122Z,6.83
2023-12-12T10:34:21.248Z,6.91
2023-12-12T10:36:51.380Z,7.02
2023-12-12T10:39:17.805Z,7.17
2023-12-12T10:41:52.121Z,7.21
2023-12-12T10:44:22.682Z,7.27
2023-12-12T10:46:52.785Z,7.28
2023-12-12T10:49:25.395Z,7.29
2023-12-12T10:51:52.022Z,7.55
2023-12-12T10:54:20.304Z,7.57
2023-12-12T10:56:47.696Z,7.56
2023-12-12T10:59:56.674Z,7.67
2023-12-12T11:02:05.080Z,7.79
2023-12-12T11:04:31.822Z,7.80
2023-12-12T11:06:58.463Z,8.03
2023-12-12T11:09:26.044Z,7.97
2023-12-12T11:11:53.338Z,8.15
2023-12-12T11:14:22.901Z,8.06
2023-12-12T11:16:50.935Z,8.12
2023-12-12T11:19:17.990Z,8.10
2023-12-12T11:21:49.396Z,8.03
2023-12-12T11:24:17.151Z,8.04
2023-12-12T11:26:45.359Z,8.11
2023-12-12T11:29:12.444Z,7.93
2023-12-12T11:31:56.685Z,8.03
2023-12-12T11:34:24.623Z,8.06
2023-12-12T11:37:00.693Z,8.09
2023-12-12T11:39:30.278Z,8.14
2023-12-12T11:41:57.422Z,8.15
2023-12-12T11:44:23.898Z,8.24
2023-12-12T11:46:54.717Z,8.26
2023-12-12T11:49:23.096Z,8.23
2023-12-12T11:51:51.328Z,8.22
2023-12-12T11:54:22.241Z,8.40
2023-12-12T11:56:49.734Z,8.50
2023-12-12T11:59:23.344Z,8.26
2023-12-12T12:01:49.839Z,8.32
2023-12-12T12:04:16.549Z,8.24
2023-12-12T12:06:44.209Z,8.19
2023-12-12T12:09:12.469Z,8.19
2023-12-12T12:11:39.284Z,8.09
2023-12-12T12:14:05.659Z,8.00
2023-12-12T12:16:32.154Z,7.82
2023-12-12T12:18:58.589Z,7.83
2023-12-12T12:21:27.336Z,7.72
2023-12-12T12:23:54.327Z,7.67
2023-12-12T12:26:20.823Z,7.77
2023-12-12T12:28:47.312Z,7.70
2023-12-12T12:31:14.499Z,7.80
2023-12-12T12:33:41.368Z,7.90
2023-12-12T12:36:07.997Z,8.05
2023-12-12T12:38:34.888Z,8.07
2023-12-12T12:41:01.316Z,8.12
2023-12-12T12:43:27.897Z,8.28
2023-12-12T12:45:54.583Z,8.45
2023-12-12T12:48:21.776Z,8.30
2023-12-12T12:50:50.866Z,8.33
2023-12-12T12:53:17.761Z,8.49
2023-12-12T12:55:44.651Z,8.46
2023-12-12T12:58:15.482Z,8.69
2023-12-12T13:00:45.736Z,8.69
2023-12-12T13:03:13.752Z,8.90
2023-12-12T13:05:41.442Z,9.08
2023-12-12T13:08:08.294Z,8.90
2023-12-12T13:10:46.754Z,8.78
2023-12-12T13:13:17.481Z,8.79
2023-12-12T13:15:48.091Z,8.81
2023-12-12T13:18:15.389Z,8.69
2023-12-12T13:20:42.529Z,8.59
2023-12-12T13:23:08.965Z,8.68
2023-12-12T13:25:35.499Z,8.53
2023-12-12T13:28:01.921Z,8.53
2023-12-12T13:30:28.314Z,8.52
2023-12-12T13:32:55.041Z,8.59
2023-12-12T13:35:33.910Z,8.33
2023-12-12T13:38:04.929Z,8.29
2023-12-12T13:40:32.475Z,8.30
2023-12-12T13:42:59.275Z,8.25
2023-12-12T13:45:37.785Z,8.18
2023-12-12T13:48:05.983Z,8.10
2023-12-12T13:50:32.737Z,8.11
2023-12-12T13:52:59.236Z,8.12
2023-12-12T13:55:29.693Z,8.13
2023-12-12T13:57:57.184Z,8.14
2023-12-12T14:00:26.111Z,8.31
2023-12-12T14:02:52.481Z,8.12
2023-12-12T14:05:18.925Z,8.28
2023-12-12T14:07:45.482Z,8.46
2023-12-12T14:10:12.047Z,8.41
2023-12-12T14:12:38.502Z,8.41
2023-12-12T14:15:05.456Z,8.41
2023-12-12T14:17:32.034Z,8.31
2023-12-12T14:19:58.770Z,8.38
2023-12-12T14:22:25.491Z,8.36
2023-12-12T14:24:51.942Z,8.22
2023-12-12T14:27:18.424Z,8.11
2023-12-12T14:29:45.584Z,8.01
2023-12-12T14:32:12.042Z,8.12
2023-12-12T14:34:40.201Z,8.20
2023-12-12T14:37:06.648Z,8.42
2023-12-12T14:39:33.023Z,8.46
2023-12-12T14:41:59.380Z,8.47
2023-12-12T14:44:25.719Z,8.53
2023-12-12T14:46:52.210Z,8.56
2023-12-12T14:49:18.865Z,8.55
2023-12-12T14:51:45.305Z,8.65
2023-12-12T14:54:11.631Z,8.59
2023-12-12T14:56:42.550Z,8.59
2023-12-12T14:59:09.367Z,8.52
2023-12-12T15:01:44.017Z,8.47
2023-12-12T15:04:10.515Z,8.47
2023-12-12T15:06:36.998Z,8.50
2023-12-12T15:09:04.997Z,8.50
2023-12-12T15:11:32.379Z,8.53
2023-12-12T15:13:58.931Z,8.52
2023-12-12T15:16:25.313Z,8.39
2023-12-12T15:18:51.784Z,8.23
2023-12-12T15:21:21.751Z,8.13
2023-12-12T15:23:50.160Z,8.17
2023-12-12T15:26:18.873Z,8.13
2023-12-12T15:28:54.121Z,8.01
2023-12-12T15:31:20.744Z,7.97
2023-12-12T15:33:47.291Z,7.92
2023-12-12T15:36:13.900Z,7.88
2023-12-12T15:38:41.103Z,7.88
2023-12-12T15:41:07.798Z,7.93
2023-12-12T15:43:35.378Z,7.95
2023-12-12T15:46:06.255Z,7.89
2023-12-12T15:48:49.477Z,8.27
2023-12-12T15:51:16.825Z,8.11
2023-12-12T15:53:43.286Z,8.06
2023-12-12T15:56:21.454Z,8.04
2023-12-12T15:58:54.259Z,8.16
2023-12-12T16:01:21.582Z,8.00
2023-12-12T16:03:51.961Z,8.13
2023-12-12T16:06:19.522Z,8.12
2023-12-12T16:08:46.206Z,8.24
2023-12-12T16:11:12.603Z,8.24
2023-12-12T16:13:39.682Z,8.27
2023-12-12T16:16:06.450Z,8.22
2023-12-12T16:18:33.086Z,8.20
2023-12-12T16:21:05.436Z,8.09
2023-12-12T16:23:32.238Z,7.74
2023-12-12T16:25:59.929Z,7.65
2023-12-12T16:28:26.317Z,7.70
2023-12-12T16:30:54.093Z,7.70
2023-12-12T16:33:20.525Z,7.66
2023-12-12T16:35:49.779Z,7.63
2023-12-12T16:38:19.715Z,7.59
2023-12-12T16:40:47.193Z,7.51
2023-12-12T16:43:14.935Z,7.71
2023-12-12T16:45:41.911Z,7.81
2023-12-12T16:48:09.610Z,7.90
2023-12-12T16:50:39.668Z,7.62
2023-12-12T16:53:06.235Z,7.58
2023-12-12T16:55:32.952Z,7.49
2023-12-12T16:57:59.319Z,7.44
2023-12-12T17:00:27.667Z,7.45
2023-12-12T17:02:55.081Z,7.42
2023-12-12T17:05:21.567Z,7.45
2023-12-12T17:07:50.514Z,7.22
2023-12-12T17:10:17.229Z,7.26
2023-12-12T17:12:44.449Z,7.21
2023-12-12T17:15:10.820Z,7.20
2023-12-12T17:17:37.176Z,7.46
2023-12-12T17:20:05.032Z,7.38
2023-12-12T17:22:31.509Z,7.56
2023-12-12T17:24:58.260Z,7.25
2023-12-12T17:27:24.860Z,7.12
2023-12-12T17:29:51.252Z,7.08
2023-12-12T17:32:17.623Z,7.21
2023-12-12T17:34:47.037Z,7.17
2023-12-12T17:37:13.746Z,7.29
2023-12-12T17:39:40.090Z,7.29
2023-12-12T17:42:06.588Z,7.45
2023-12-12T17:44:32.939Z,7.35
2023-12-12T17:46:59.474Z,7.11
2023-12-12T17:49:25.927Z,7.12
2023-12-12T17:51:52.402Z,6.91
2023-12-12T17:54:19.074Z,6.83
2023-12-12T17:56:45.671Z,6.74
2023-12-12T17:59:12.283Z,6.96
2023-12-12T18:01:39.485Z,7.12
2023-12-12T18:04:06.056Z,7.30
2023-12-12T18:06:33.394Z,7.49
2023-12-12T18:09:00.339Z,7.59
2023-12-12T18:11:26.915Z,7.68
2023-12-12T18:13:53.833Z,7.61
2023-12-12T18:16:20.589Z,7.62
2023-12-12T18:18:47.400Z,7.67
2023-12-12T18:21:16.213Z,7.73
2023-12-12T18:23:42.565Z,7.73
2023-12-12T18:26:08.947Z,7.83
2023-12-12T18:28:35.479Z,7.89
2023-12-12T18:31:01.952Z,7.82
2023-12-12T18:33:28.560Z,7.73
2023-12-12T18:35:54.968Z,7.89
2023-12-12T18:38:23.640Z,7.95
2023-12-12T18:40:50.135Z,7.90
2023-12-12T18:43:17.214Z,8.01
2023-12-12T18:45:43.584Z,8.00
2023-12-12T18:48:10.051Z,7.98
2023-12-12T18:50:37.537Z,7.96
2023-12-12T18:53:04.130Z,8.01
2023-12-12T18:55:30.657Z,7.97
2023-12-12T18:57:57.075Z,7.85
2023-12-12T19:00:23.533Z,7.82
2023-12-12T19:02:49.920Z,7.77
2023-12-12T19:05:19.317Z,7.73
2023-12-12T19:07:46.043Z,7.69
2023-12-12T19:10:13.055Z,7.65
2023-12-12T19:12:40.954Z,7.63
2023-12-12T19:15:11.059Z,7.65
2023-12-12T19:17:38.395Z,7.70
2023-12-12T19:20:08.391Z,7.73
2023-12-12T19:22:41.655Z,7.64
2023-12-12T19:25:08.494Z,7.68
2023-12-12T19:27:35.320Z,7.71
2023-12-12T19:30:01.972Z,7.65
2023-12-12T19:32:29.375Z,7.65
2023-12-12T19:35:05.101Z,7.65
2023-12-12T19:37:31.649Z,7.60
2023-12-12T19:39:58.114Z,7.55
2023-12-12T19:42:25.561Z,7.53
2023-12-12T19:44:56.953Z,7.54
2023-12-12T19:47:25.409Z,7.48
2023-12-12T19:49:52.116Z,7.50
2023-12-12T19:52:19.855Z,7.46
2023-12-12T19:54:46.286Z,7.37
2023-12-12T19:57:17.855Z,7.32
2023-12-12T19:59:49.594Z,7.31
2023-12-12T20:02:16.593Z,7.32
2023-12-12T20:04:44.174Z,7.31
2023-12-12T20:07:11.879Z,7.23
2023-12-12T20:09:42.660Z,7.16
2023-12-12T20:12:10.280Z,7.13
2023-12-12T20:14:36.862Z,7.08
2023-12-12T20:17:03.368Z,7.09
2023-12-12T20:19:29.770Z,7.06
2023-12-12T20:21:56.436Z,7.04
2023-12-12T20:24:22.857Z,7.00
2023-12-12T20:26:49.195Z,7.04
2023-12-12T20:29:16.029Z,7.02
2023-12-12T20:31:42.961Z,6.89
2023-12-12T20:34:09.565Z,6.92
2023-12-12T20:36:36.109Z,6.94
2023-12-12T20:39:02.536Z,6.94
2023-12-12T20:41:28.951Z,6.96
2023-12-12T20:43:56.090Z,6.86
2023-12-12T20:46:22.537Z,6.86
2023-12-12T20:48:57.527Z,7.08
2023-12-12T20:51:25.462Z,6.33
2023-12-12T20:53:51.868Z,6.82
2023-12-12T20:56:18.222Z,7.05
2023-12-12T20:58:44.686Z,6.88
2023-12-12T21:01:18.118Z,6.94
2023-12-12T21:03:44.653Z,7.01
2023-12-12T21:06:11.151Z,6.92
2023-12-12T21:08:37.553Z,6.89
2023-12-12T21:11:13.791Z,6.79
2023-12-12T21:13:40.676Z,6.83
2023-12-12T21:16:17.806Z,6.87
2023-12-12T21:18:45.520Z,6.81
2023-12-12T21:21:11.938Z,6.83
2023-12-12T21:23:38.279Z,6.89
2023-12-12T21:26:04.781Z,6.86
2023-12-12T21:28:34.492Z,6.90
2023-12-12T21:31:02.925Z,6.87
2023-12-12T21:33:29.348Z,6.95
2023-12-12T21:35:55.797Z,6.95
2023-12-12T21:38:23.653Z,6.57
2023-12-12T21:40:50.098Z,6.43
2023-12-12T21:43:16.652Z,6.40
2023-12-12T21:45:45.503Z,6.44
2023-12-12T21:48:13.444Z,6.48
2023-12-12T21:50:41.982Z,6.46
2023-12-12T21:53:08.405Z,6.42
2023-12-12T21:55:36.440Z,6.42
2023-12-12T21:58:05.975Z,6.42
2023-12-12T22:00:32.314Z,6.52
2023-12-12T22:02:58.699Z,6.46
2023-12-12T22:05:26.491Z,6.42
2023-12-12T22:07:54.313Z,6.47
2023-12-12T22:10:23.974Z,6.42
2023-12-12T22:12:50.456Z,6.43
2023-12-12T22:15:23.882Z,6.42
2023-12-12T22:17:50.379Z,6.34
2023-12-12T22:20:16.876Z,6.45
2023-12-12T22:22:43.395Z,6.47
2023-12-12T22:25:09.983Z,6.45
2023-12-12T22:27:45.052Z,6.59
2023-12-12T22:30:11.710Z,6.49
2023-12-12T22:32:38.297Z,6.52
2023-12-12T22:35:05.858Z,6.49
2023-12-12T22:37:32.739Z,6.50
2023-12-12T22:40:01.278Z,6.47
2023-12-12T22:42:28.182Z,6.39
2023-12-12T22:44:54.618Z,6.55
2023-12-12T22:47:23.098Z,6.46
2023-12-12T22:49:49.493Z,6.39
2023-12-12T22:52:15.882Z,6.33
2023-12-12T22:54:42.238Z,6.36
2023-12-12T22:57:08.615Z,6.32
2023-12-12T22:59:36.174Z,6.35
2023-12-12T23:02:03.356Z,6.36
2023-12-12T23:04:29.850Z,6.35
2023-12-12T23:06:56.913Z,6.37
2023-12-12T23:09:23.338Z,6.45
2023-12-12T23:11:50.036Z,6.38
2023-12-12T23:14:16.377Z,6.42
2023-12-12T23:16:44.965Z,6.39
2023-12-12T23:19:11.443Z,6.34
2023-12-12T23:21:37.874Z,6.35
2023-12-12T23:24:05.721Z,6.27
2023-12-12T23:26:33.433Z,6.41
2023-12-12T23:28:59.867Z,6.47
2023-12-12T23:31:26.546Z,6.47
2023-12-12T23:33:52.944Z,6.55
2023-12-12T23:36:19.612Z,6.43
2023-12-12T23:38:52.201Z,6.39
2023-12-12T23:41:18.624Z,6.35
2023-12-12T23:43:45.045Z,6.35
2023-12-12T23:46:11.511Z,6.34
2023-12-12T23:48:38.015Z,6.38
2023-12-12T23:51:04.545Z,6.40
2023-12-12T23:53:34.572Z,6.41
2023-12-12T23:56:02.210Z,6.51
2023-12-12T23:58:28.697Z,6.70
